Ashby, Minnesota
Current Conditions -  °F | °C
As of 7:15 PM on Friday 24 Oct 2014 (Local Time) from KY63 Reporting Station
Clear Clear  
Wind Chill: 65°   Ceiling: Unl
Heat Index: 65°   Visibility: 10mi
Dew Point: 43°   Wind: 15mph
Humidity: 45%   Direction: 260°W
Pressure: 29.85"   Gusts: NA
Location:  46.09°N, 95.82°W
Report Text: KY63 250015Z AUTO 26013KT 10SM CLR 18/06 A2985 RMK AO2 T01810060
Loading
Personal Weather Stations






























Interactive Weather Map New forecast layout! Learn more

10-Day Weather Forecast

Advertisements
Track Severe Weather on mobile